sensor_id;sensor_type;location;lat;lon;timestamp;pressure;altitude;pressure_sealevel;temperature;humidity
11621;BME280;5866;49.094;11.900;2023-07-20T00:02:11;95945.56;;;17.54;100.00
11621;BME280;5866;49.094;11.900;2023-07-20T00:04:40;95928.84;;;18.03;100.00
11621;BME280;5866;49.094;11.900;2023-07-20T00:07:08;95928.09;;;17.89;100.00
11621;BME280;5866;49.094;11.900;2023-07-20T00:09:36;95930.03;;;18.13;100.00
11621;BME280;5866;49.094;11.900;2023-07-20T00:12:04;95916.69;;;18.63;100.00
11621;BME280;5866;49.094;11.900;2023-07-20T00:14:31;95918.94;;;18.35;100.00
11621;BME280;5866;49.094;11.900;2023-07-20T00:16:59;95920.81;;;18.03;100.00
11621;BME280;5866;49.094;11.900;2023-07-20T00:19:27;95923.94;;;17.93;100.00
11621;BME280;5866;49.094;11.900;2023-07-20T00:21:56;95937.78;;;17.90;100.00
11621;BME280;5866;49.094;11.900;2023-07-20T00:24:24;95931.03;;;17.81;100.00
11621;BME280;5866;49.094;11.900;2023-07-20T00:26:52;95930.41;;;17.79;100.00
11621;BME280;5866;49.094;11.900;2023-07-20T00:29:19;95929.22;;;17.69;100.00
11621;BME280;5866;49.094;11.900;2023-07-20T00:31:47;95927.53;;;17.74;100.00
11621;BME280;5866;49.094;11.900;2023-07-20T00:34:17;95928.66;;;17.54;100.00
11621;BME280;5866;49.094;11.900;2023-07-20T00:36:45;95938.00;;;17.31;100.00
11621;BME280;5866;49.094;11.900;2023-07-20T00:39:14;95934.31;;;17.19;100.00
11621;BME280;5866;49.094;11.900;2023-07-20T00:41:42;95940.31;;;17.08;100.00
11621;BME280;5866;49.094;11.900;2023-07-20T00:44:09;95939.69;;;17.06;100.00
11621;BME280;5866;49.094;11.900;2023-07-20T00:46:37;95938.03;;;17.12;100.00
11621;BME280;5866;49.094;11.900;2023-07-20T00:49:05;95939.25;;;17.09;100.00
11621;BME280;5866;49.094;11.900;2023-07-20T00:51:33;95946.53;;;16.83;100.00
11621;BME280;5866;49.094;11.900;2023-07-20T00:54:00;95953.75;;;16.62;100.00
11621;BME280;5866;49.094;11.900;2023-07-20T00:56:30;95963.22;;;16.58;100.00
11621;BME280;5866;49.094;11.900;2023-07-20T00:58:58;95968.97;;;16.55;100.00
11621;BME280;5866;49.094;11.900;2023-07-20T01:01:25;95960.34;;;16.80;100.00
11621;BME280;5866;49.094;11.900;2023-07-20T01:03:53;95961.75;;;17.02;100.00
11621;BME280;5866;49.094;11.900;2023-07-20T01:06:28;95951.69;;;16.78;100.00
11621;BME280;5866;49.094;11.900;2023-07-20T01:09:04;95960.72;;;16.44;100.00
11621;BME280;5866;49.094;11.900;2023-07-20T01:11:39;95961.94;;;16.35;100.00
11621;BME280;5866;49.094;11.900;2023-07-20T01:14:11;95960.69;;;16.31;100.00
11621;BME280;5866;49.094;11.900;2023-07-20T01:16:39;95962.13;;;16.33;100.00
11621;BME280;5866;49.094;11.900;2023-07-20T01:19:07;95954.16;;;16.59;100.00
11621;BME280;5866;49.094;11.900;2023-07-20T01:21:39;95947.56;;;16.82;100.00
11621;BME280;5866;49.094;11.900;2023-07-20T01:24:32;95945.91;;;16.67;100.00
11621;BME280;5866;49.094;11.900;2023-07-20T01:30:33;95949.84;;;16.58;100.00
11621;BME280;5866;49.094;11.900;2023-07-20T01:33:05;95950.84;;;16.51;100.00
11621;BME280;5866;49.094;11.900;2023-07-20T01:35:36;95958.22;;;16.36;100.00
11621;BME280;5866;49.094;11.900;2023-07-20T01:38:04;95953.06;;;16.28;100.00
11621;BME280;5866;49.094;11.900;2023-07-20T01:40:34;95953.88;;;16.28;100.00
11621;BME280;5866;49.094;11.900;2023-07-20T01:43:02;95952.47;;;16.45;100.00
11621;BME280;5866;49.094;11.900;2023-07-20T01:45:29;95950.44;;;16.54;100.00
11621;BME280;5866;49.094;11.900;2023-07-20T01:47:57;95960.31;;;16.53;100.00
11621;BME280;5866;49.094;11.900;2023-07-20T01:50:26;95954.56;;;16.69;100.00
11621;BME280;5866;49.094;11.900;2023-07-20T01:52:55;95958.63;;;17.18;100.00
11621;BME280;5866;49.094;11.900;2023-07-20T01:55:22;95953.63;;;17.41;100.00
11621;BME280;5866;49.094;11.900;2023-07-20T01:57:50;95954.72;;;17.07;100.00
11621;BME280;5866;49.094;11.900;2023-07-20T02:00:18;95965.88;;;17.04;100.00
11621;BME280;5866;49.094;11.900;2023-07-20T02:02:47;95964.66;;;16.87;100.00
11621;BME280;5866;49.094;11.900;2023-07-20T02:05:15;95972.28;;;16.77;100.00
11621;BME280;5866;49.094;11.900;2023-07-20T02:07:44;95978.47;;;16.64;100.00
11621;BME280;5866;49.094;11.900;2023-07-20T02:10:12;95974.75;;;16.59;100.00
11621;BME280;5866;49.094;11.900;2023-07-20T02:12:39;95969.59;;;16.64;100.00
11621;BME280;5866;49.094;11.900;2023-07-20T02:15:08;95971.81;;;16.34;100.00
11621;BME280;5866;49.094;11.900;2023-07-20T02:17:35;95963.13;;;16.26;100.00
11621;BME280;5866;49.094;11.900;2023-07-20T02:20:04;95974.69;;;16.33;100.00
11621;BME280;5866;49.094;11.900;2023-07-20T02:22:35;95982.97;;;16.57;100.00
11621;BME280;5866;49.094;11.900;2023-07-20T02:25:05;95981.31;;;16.43;100.00
11621;BME280;5866;49.094;11.900;2023-07-20T02:27:33;95975.91;;;16.30;100.00
11621;BME280;5866;49.094;11.900;2023-07-20T02:30:01;95977.97;;;16.28;100.00
11621;BME280;5866;49.094;11.900;2023-07-20T02:32:29;95976.56;;;16.39;100.00
11621;BME280;5866;49.094;11.900;2023-07-20T02:34:58;95979.63;;;16.29;100.00
11621;BME280;5866;49.094;11.900;2023-07-20T02:37:26;95974.47;;;16.34;100.00
11621;BME280;5866;49.094;11.900;2023-07-20T02:39:53;95984.16;;;16.48;100.00
11621;BME280;5866;49.094;11.900;2023-07-20T02:42:22;95990.81;;;16.65;100.00
11621;BME280;5866;49.094;11.900;2023-07-20T02:44:52;95997.00;;;16.73;100.00
11621;BME280;5866;49.094;11.900;2023-07-20T02:47:20;95994.53;;;16.71;100.00
11621;BME280;5866;49.094;11.900;2023-07-20T02:49:47;95983.19;;;16.95;100.00
11621;BME280;5866;49.094;11.900;2023-07-20T02:52:15;95961.47;;;17.42;100.00
11621;BME280;5866;49.094;11.900;2023-07-20T02:54:45;95950.31;;;17.45;100.00
11621;BME280;5866;49.094;11.900;2023-07-20T02:57:12;95935.69;;;18.30;100.00
11621;BME280;5866;49.094;11.900;2023-07-20T02:59:41;95951.81;;;17.92;100.00
11621;BME280;5866;49.094;11.900;2023-07-20T03:02:09;95966.03;;;17.29;100.00
11621;BME280;5866;49.094;11.900;2023-07-20T03:04:36;95964.41;;;17.28;100.00
11621;BME280;5866;49.094;11.900;2023-07-20T03:07:05;95978.25;;;16.79;100.00
11621;BME280;5866;49.094;11.900;2023-07-20T03:09:33;95971.69;;;16.82;100.00
11621;BME280;5866;49.094;11.900;2023-07-20T03:12:00;95960.47;;;17.24;100.00
11621;BME280;5866;49.094;11.900;2023-07-20T03:14:28;95961.06;;;17.39;100.00
11621;BME280;5866;49.094;11.900;2023-07-20T03:16:57;95959.81;;;17.48;100.00
11621;BME280;5866;49.094;11.900;2023-07-20T03:19:25;95976.00;;;16.83;100.00
11621;BME280;5866;49.094;11.900;2023-07-20T03:21:52;95981.53;;;16.55;100.00
11621;BME280;5866;49.094;11.900;2023-07-20T03:24:20;95994.06;;;16.48;100.00
11621;BME280;5866;49.094;11.900;2023-07-20T03:26:47;95991.66;;;16.66;100.00
11621;BME280;5866;49.094;11.900;2023-07-20T03:29:15;95981.34;;;16.76;100.00
11621;BME280;5866;49.094;11.900;2023-07-20T03:31:43;95981.78;;;16.73;100.00
11621;BME280;5866;49.094;11.900;2023-07-20T03:34:11;95983.59;;;16.53;100.00
11621;BME280;5866;49.094;11.900;2023-07-20T03:36:41;95987.09;;;16.53;100.00
11621;BME280;5866;49.094;11.900;2023-07-20T03:39:09;95981.78;;;16.80;100.00
11621;BME280;5866;49.094;11.900;2023-07-20T03:41:36;95976.81;;;16.90;100.00
11621;BME280;5866;49.094;11.900;2023-07-20T03:44:04;95978.06;;;16.94;100.00
11621;BME280;5866;49.094;11.900;2023-07-20T03:46:32;95984.25;;;16.88;100.00
11621;BME280;5866;49.094;11.900;2023-07-20T03:49:00;95988.34;;;16.71;100.00
11621;BME280;5866;49.094;11.900;2023-07-20T03:51:29;96001.06;;;16.42;100.00
11621;BME280;5866;49.094;11.900;2023-07-20T03:53:57;95994.44;;;16.32;100.00
11621;BME280;5866;49.094;11.900;2023-07-20T03:56:24;95997.75;;;16.27;100.00
11621;BME280;5866;49.094;11.900;2023-07-20T03:58:52;96006.56;;;16.21;100.00
11621;BME280;5866;49.094;11.900;2023-07-20T04:01:20;96002.69;;;16.37;100.00
11621;BME280;5866;49.094;11.900;2023-07-20T04:03:48;96002.28;;;16.33;100.00
11621;BME280;5866;49.094;11.900;2023-07-20T04:06:15;96004.34;;;16.31;100.00
11621;BME280;5866;49.094;11.900;2023-07-20T04:08:45;96011.38;;;16.45;100.00
11621;BME280;5866;49.094;11.900;2023-07-20T04:11:13;96008.25;;;16.48;100.00
11621;BME280;5866;49.094;11.900;2023-07-20T04:13:41;96002.34;;;16.53;100.00
11621;BME280;5866;49.094;11.900;2023-07-20T04:16:09;96000.22;;;16.48;100.00
11621;BME280;5866;49.094;11.900;2023-07-20T04:18:37;96004.78;;;16.48;100.00
11621;BME280;5866;49.094;11.900;2023-07-20T04:21:04;96010.81;;;16.56;100.00
11621;BME280;5866;49.094;11.900;2023-07-20T04:23:32;96008.94;;;16.63;100.00
11621;BME280;5866;49.094;11.900;2023-07-20T04:26:01;96014.91;;;16.65;100.00
11621;BME280;5866;49.094;11.900;2023-07-20T04:28:29;96013.28;;;16.64;100.00
11621;BME280;5866;49.094;11.900;2023-07-20T04:31:09;96006.06;;;16.78;100.00
11621;BME280;5866;49.094;11.900;2023-07-20T04:33:37;96002.78;;;16.83;100.00
11621;BME280;5866;49.094;11.900;2023-07-20T04:36:05;96009.81;;;16.90;100.00
11621;BME280;5866;49.094;11.900;2023-07-20T04:38:32;96013.50;;;16.96;100.00
11621;BME280;5866;49.094;11.900;2023-07-20T04:41:01;96013.09;;;16.79;100.00
11621;BME280;5866;49.094;11.900;2023-07-20T04:43:29;96013.09;;;16.86;100.00
11621;BME280;5866;49.094;11.900;2023-07-20T04:45:57;96010.22;;;17.00;100.00
11621;BME280;5866;49.094;11.900;2023-07-20T04:48:25;96008.34;;;16.88;100.00
11621;BME280;5866;49.094;11.900;2023-07-20T04:50:52;96014.69;;;17.26;100.00
11621;BME280;5866;49.094;11.900;2023-07-20T04:53:20;96011.38;;;17.57;100.00
11621;BME280;5866;49.094;11.900;2023-07-20T04:55:50;96015.75;;;17.12;100.00
11621;BME280;5866;49.094;11.900;2023-07-20T04:58:20;96020.88;;;17.26;100.00
11621;BME280;5866;49.094;11.900;2023-07-20T05:00:49;96024.63;;;17.25;100.00
11621;BME280;5866;49.094;11.900;2023-07-20T05:03:17;96016.34;;;17.46;100.00
11621;BME280;5866;49.094;11.900;2023-07-20T05:05:46;96021.72;;;17.53;100.00
11621;BME280;5866;49.094;11.900;2023-07-20T05:08:16;96033.66;;;17.44;100.00
11621;BME280;5866;49.094;11.900;2023-07-20T05:10:43;96028.72;;;17.54;100.00
11621;BME280;5866;49.094;11.900;2023-07-20T05:13:11;96033.47;;;17.59;100.00
11621;BME280;5866;49.094;11.900;2023-07-20T05:15:40;96021.84;;;17.84;100.00
11621;BME280;5866;49.094;11.900;2023-07-20T05:18:07;96024.50;;;17.91;100.00
11621;BME280;5866;49.094;11.900;2023-07-20T05:20:35;96033.19;;;17.86;100.00
11621;BME280;5866;49.094;11.900;2023-07-20T05:23:03;96034.91;;;17.61;100.00
11621;BME280;5866;49.094;11.900;2023-07-20T05:25:31;96031.00;;;17.57;100.00
11621;BME280;5866;49.094;11.900;2023-07-20T05:27:59;96039.44;;;17.54;100.00
11621;BME280;5866;49.094;11.900;2023-07-20T05:30:27;96032.38;;;17.79;100.00
11621;BME280;5866;49.094;11.900;2023-07-20T05:32:56;96032.09;;;18.00;100.00
11621;BME280;5866;49.094;11.900;2023-07-20T05:35:25;96030.81;;;18.09;100.00
11621;BME280;5866;49.094;11.900;2023-07-20T05:37:53;96026.13;;;18.36;100.00
11621;BME280;5866;49.094;11.900;2023-07-20T05:40:21;96036.69;;;18.31;100.00
11621;BME280;5866;49.094;11.900;2023-07-20T05:42:49;96035.94;;;18.17;100.00
11621;BME280;5866;49.094;11.900;2023-07-20T05:45:18;96045.91;;;17.97;100.00
11621;BME280;5866;49.094;11.900;2023-07-20T05:47:46;96039.66;;;18.10;100.00
11621;BME280;5866;49.094;11.900;2023-07-20T05:50:15;96046.22;;;18.27;100.00
11621;BME280;5866;49.094;11.900;2023-07-20T05:52:43;96046.88;;;18.60;100.00
11621;BME280;5866;49.094;11.900;2023-07-20T05:55:11;96044.00;;;18.93;100.00
11621;BME280;5866;49.094;11.900;2023-07-20T05:57:38;96046.09;;;18.60;100.00
11621;BME280;5866;49.094;11.900;2023-07-20T06:00:10;96040.00;;;18.71;100.00
11621;BME280;5866;49.094;11.900;2023-07-20T06:02:40;96033.63;;;19.21;100.00
11621;BME280;5866;49.094;11.900;2023-07-20T06:05:09;96045.41;;;19.69;100.00
11621;BME280;5866;49.094;11.900;2023-07-20T06:07:38;96049.75;;;19.70;100.00
11621;BME280;5866;49.094;11.900;2023-07-20T06:10:07;96042.69;;;19.27;100.00
11621;BME280;5866;49.094;11.900;2023-07-20T06:12:34;96046.75;;;19.60;100.00
11621;BME280;5866;49.094;11.900;2023-07-20T06:15:02;96043.28;;;19.35;100.00
11621;BME280;5866;49.094;11.900;2023-07-20T06:17:31;96045.66;;;19.43;100.00
11621;BME280;5866;49.094;11.900;2023-07-20T06:19:59;96044.16;;;20.26;100.00
11621;BME280;5866;49.094;11.900;2023-07-20T06:22:27;96039.84;;;21.26;100.00
11621;BME280;5866;49.094;11.900;2023-07-20T06:24:55;96039.03;;;20.54;100.00
11621;BME280;5866;49.094;11.900;2023-07-20T06:27:23;96043.00;;;20.52;100.00
11621;BME280;5866;49.094;11.900;2023-07-20T06:29:51;96039.56;;;20.09;100.00
11621;BME280;5866;49.094;11.900;2023-07-20T06:32:18;96041.41;;;20.44;100.00
11621;BME280;5866;49.094;11.900;2023-07-20T06:34:46;96039.28;;;20.17;100.00
11621;BME280;5866;49.094;11.900;2023-07-20T06:37:13;96048.84;;;19.76;100.00
11621;BME280;5866;49.094;11.900;2023-07-20T06:39:41;96039.53;;;20.63;100.00
11621;BME280;5866;49.094;11.900;2023-07-20T06:42:13;96042.81;;;20.65;100.00
11621;BME280;5866;49.094;11.900;2023-07-20T06:44:40;96036.44;;;20.89;100.00
11621;BME280;5866;49.094;11.900;2023-07-20T06:47:08;96039.97;;;21.01;100.00
11621;BME280;5866;49.094;11.900;2023-07-20T06:49:35;96044.00;;;20.69;100.00
11621;BME280;5866;49.094;11.900;2023-07-20T06:52:03;96032.63;;;19.83;100.00
11621;BME280;5866;49.094;11.900;2023-07-20T06:54:31;96035.81;;;19.55;100.00
11621;BME280;5866;49.094;11.900;2023-07-20T06:57:01;96043.47;;;20.13;100.00
11621;BME280;5866;49.094;11.900;2023-07-20T06:59:45;96025.75;;;20.53;100.00
11621;BME280;5866;49.094;11.900;2023-07-20T07:02:13;96047.72;;;20.68;100.00
11621;BME280;5866;49.094;11.900;2023-07-20T07:04:42;96044.97;;;21.16;100.00
11621;BME280;5866;49.094;11.900;2023-07-20T07:07:09;96039.34;;;21.29;100.00
11621;BME280;5866;49.094;11.900;2023-07-20T07:09:37;96037.41;;;22.34;98.43
11621;BME280;5866;49.094;11.900;2023-07-20T07:12:05;96040.31;;;20.52;100.00
11621;BME280;5866;49.094;11.900;2023-07-20T07:14:33;96045.09;;;21.32;100.00
11621;BME280;5866;49.094;11.900;2023-07-20T07:17:03;96045.56;;;22.50;95.29
11621;BME280;5866;49.094;11.900;2023-07-20T07:19:31;96035.84;;;23.06;89.15
11621;BME280;5866;49.094;11.900;2023-07-20T07:21:59;96039.63;;;21.97;87.45
11621;BME280;5866;49.094;11.900;2023-07-20T07:24:26;96032.19;;;22.04;88.17
11621;BME280;5866;49.094;11.900;2023-07-20T07:26:59;96032.41;;;22.14;88.34
11621;BME280;5866;49.094;11.900;2023-07-20T07:29:27;96042.66;;;21.54;91.71
11621;BME280;5866;49.094;11.900;2023-07-20T07:31:55;96039.13;;;21.77;90.19
11621;BME280;5866;49.094;11.900;2023-07-20T07:34:24;96042.06;;;21.29;92.16
11621;BME280;5866;49.094;11.900;2023-07-20T07:36:52;96035.66;;;22.28;86.11
11621;BME280;5866;49.094;11.900;2023-07-20T07:39:20;96047.47;;;21.87;77.80
11621;BME280;5866;49.094;11.900;2023-07-20T07:41:50;96050.75;;;22.00;85.62
11621;BME280;5866;49.094;11.900;2023-07-20T07:44:18;96039.19;;;22.68;79.74
11621;BME280;5866;49.094;11.900;2023-07-20T07:46:47;96044.50;;;23.91;74.72
11621;BME280;5866;49.094;11.900;2023-07-20T07:49:15;96036.97;;;23.10;76.60
11621;BME280;5866;49.094;11.900;2023-07-20T07:51:44;96049.69;;;21.67;78.61
11621;BME280;5866;49.094;11.900;2023-07-20T07:54:12;96055.09;;;22.13;84.01
11621;BME280;5866;49.094;11.900;2023-07-20T07:56:40;96053.44;;;22.52;79.61
11621;BME280;5866;49.094;11.900;2023-07-20T07:59:07;96047.06;;;22.30;80.53
11621;BME280;5866;49.094;11.900;2023-07-20T08:01:35;96047.25;;;22.79;76.86
11621;BME280;5866;49.094;11.900;2023-07-20T08:04:03;96059.22;;;23.12;76.15
11621;BME280;5866;49.094;11.900;2023-07-20T08:06:31;96057.09;;;22.57;76.29
11621;BME280;5866;49.094;11.900;2023-07-20T08:09:00;96053.28;;;22.30;75.24
11621;BME280;5866;49.094;11.900;2023-07-20T08:11:28;96048.72;;;23.65;68.51
11621;BME280;5866;49.094;11.900;2023-07-20T08:13:57;96053.94;;;22.77;61.80
11621;BME280;5866;49.094;11.900;2023-07-20T08:16:24;96057.59;;;22.82;65.95
11621;BME280;5866;49.094;11.900;2023-07-20T08:18:52;96059.56;;;24.20;61.70
11621;BME280;5866;49.094;11.900;2023-07-20T08:21:20;96059.78;;;24.35;60.36
11621;BME280;5866;49.094;11.900;2023-07-20T08:23:48;96057.88;;;23.97;58.15
11621;BME280;5866;49.094;11.900;2023-07-20T08:26:17;96067.19;;;23.85;59.67
11621;BME280;5866;49.094;11.900;2023-07-20T08:28:45;96061.84;;;24.06;57.65
11621;BME280;5866;49.094;11.900;2023-07-20T08:31:14;96064.38;;;23.96;60.05
11621;BME280;5866;49.094;11.900;2023-07-20T08:33:42;96056.13;;;22.52;63.82
11621;BME280;5866;49.094;11.900;2023-07-20T08:36:10;96073.78;;;23.55;62.56
11621;BME280;5866;49.094;11.900;2023-07-20T08:38:37;96061.25;;;23.21;59.03
11621;BME280;5866;49.094;11.900;2023-07-20T08:41:05;96061.94;;;23.61;57.32
11621;BME280;5866;49.094;11.900;2023-07-20T08:43:36;96069.66;;;23.53;54.22
11621;BME280;5866;49.094;11.900;2023-07-20T08:46:05;96077.13;;;23.01;58.18
11621;BME280;5866;49.094;11.900;2023-07-20T08:48:33;96072.31;;;23.48;54.90
11621;BME280;5866;49.094;11.900;2023-07-20T08:51:01;96068.28;;;23.84;54.40
11621;BME280;5866;49.094;11.900;2023-07-20T08:53:32;96060.09;;;24.00;51.83
11621;BME280;5866;49.094;11.900;2023-07-20T08:56:00;96054.09;;;22.99;53.34
11621;BME280;5866;49.094;11.900;2023-07-20T08:58:29;96069.00;;;23.79;54.67
11621;BME280;5866;49.094;11.900;2023-07-20T09:00:59;96062.31;;;24.03;49.70
11621;BME280;5866;49.094;11.900;2023-07-20T09:03:28;96052.06;;;24.05;50.63
11621;BME280;5866;49.094;11.900;2023-07-20T09:05:56;96066.59;;;23.99;52.68
11621;BME280;5866;49.094;11.900;2023-07-20T09:08:24;96063.88;;;23.99;52.84
11621;BME280;5866;49.094;11.900;2023-07-20T09:10:52;96066.06;;;23.03;54.39
11621;BME280;5866;49.094;11.900;2023-07-20T09:13:19;96063.53;;;23.41;51.67
11621;BME280;5866;49.094;11.900;2023-07-20T09:15:47;96055.81;;;23.66;49.10
11621;BME280;5866;49.094;11.900;2023-07-20T09:18:25;96059.59;;;24.03;49.48
11621;BME280;5866;49.094;11.900;2023-07-20T09:20:53;96070.97;;;21.86;54.90
11621;BME280;5866;49.094;11.900;2023-07-20T09:23:29;96080.81;;;22.04;56.19
11621;BME280;5866;49.094;11.900;2023-07-20T09:25:57;96065.03;;;23.04;54.58
11621;BME280;5866;49.094;11.900;2023-07-20T09:28:25;96058.41;;;23.44;53.26
11621;BME280;5866;49.094;11.900;2023-07-20T09:30:54;96058.88;;;24.51;49.47
11621;BME280;5866;49.094;11.900;2023-07-20T09:33:24;96056.28;;;25.09;45.08
11621;BME280;5866;49.094;11.900;2023-07-20T09:35:53;96058.06;;;24.72;47.07
11621;BME280;5866;49.094;11.900;2023-07-20T09:38:26;96050.47;;;23.71;50.42
11621;BME280;5866;49.094;11.900;2023-07-20T09:40:55;96065.16;;;23.42;49.71
11621;BME280;5866;49.094;11.900;2023-07-20T09:43:28;96051.91;;;23.12;51.28
11621;BME280;5866;49.094;11.900;2023-07-20T09:45:57;96055.41;;;23.41;50.49
11621;BME280;5866;49.094;11.900;2023-07-20T09:48:26;96044.78;;;23.89;51.23
11621;BME280;5866;49.094;11.900;2023-07-20T09:50:57;96045.50;;;24.44;47.24
11621;BME280;5866;49.094;11.900;2023-07-20T09:53:25;96042.19;;;25.39;45.22
11621;BME280;5866;49.094;11.900;2023-07-20T09:55:53;96048.31;;;24.98;46.58
11621;BME280;5866;49.094;11.900;2023-07-20T09:58:21;96051.34;;;24.31;41.26
11621;BME280;5866;49.094;11.900;2023-07-20T10:00:51;96055.09;;;24.30;43.63
11621;BME280;5866;49.094;11.900;2023-07-20T10:03:21;96031.94;;;24.66;44.99
11621;BME280;5866;49.094;11.900;2023-07-20T10:05:54;96043.97;;;24.49;43.55
11621;BME280;5866;49.094;11.900;2023-07-20T10:08:25;96049.84;;;25.74;42.28
11621;BME280;5866;49.094;11.900;2023-07-20T10:10:57;96041.28;;;26.39;40.74
11621;BME280;5866;49.094;11.900;2023-07-20T10:13:28;96041.28;;;25.29;43.36
11621;BME280;5866;49.094;11.900;2023-07-20T10:16:01;96053.16;;;24.04;45.93
11621;BME280;5866;49.094;11.900;2023-07-20T10:18:34;96034.84;;;25.08;43.78
11621;BME280;5866;49.094;11.900;2023-07-20T10:21:08;96044.09;;;25.07;43.52
11621;BME280;5866;49.094;11.900;2023-07-20T10:23:40;96031.22;;;24.06;41.54
11621;BME280;5866;49.094;11.900;2023-07-20T10:26:08;96038.56;;;23.72;42.65
11621;BME280;5866;49.094;11.900;2023-07-20T10:28:38;96032.28;;;23.33;43.39
11621;BME280;5866;49.094;11.900;2023-07-20T10:31:07;96039.47;;;23.44;45.22
11621;BME280;5866;49.094;11.900;2023-07-20T10:33:36;96029.75;;;23.15;45.13
11621;BME280;5866;49.094;11.900;2023-07-20T10:36:07;96040.09;;;23.85;45.17
11621;BME280;5866;49.094;11.900;2023-07-20T10:38:41;96034.47;;;23.53;45.05
11621;BME280;5866;49.094;11.900;2023-07-20T10:41:18;96030.28;;;23.29;44.50
11621;BME280;5866;49.094;11.900;2023-07-20T10:43:47;96028.56;;;23.23;45.41
11621;BME280;5866;49.094;11.900;2023-07-20T10:46:15;96028.94;;;24.63;43.17
11621;BME280;5866;49.094;11.900;2023-07-20T10:49:01;96023.16;;;26.08;42.71
11621;BME280;5866;49.094;11.900;2023-07-20T10:51:38;96023.03;;;27.62;38.58
11621;BME280;5866;49.094;11.900;2023-07-20T10:54:08;96015.69;;;28.71;37.24
11621;BME280;5866;49.094;11.900;2023-07-20T10:56:35;96016.22;;;27.59;38.04
11621;BME280;5866;49.094;11.900;2023-07-20T10:59:17;96013.44;;;26.22;39.70
11621;BME280;5866;49.094;11.900;2023-07-20T11:01:47;96017.34;;;24.94;43.44
11621;BME280;5866;49.094;11.900;2023-07-20T11:04:16;96027.72;;;25.60;40.25
11621;BME280;5866;49.094;11.900;2023-07-20T11:06:55;96013.53;;;24.46;41.84
11621;BME280;5866;49.094;11.900;2023-07-20T11:09:22;96021.13;;;24.93;42.60
11621;BME280;5866;49.094;11.900;2023-07-20T11:12:09;96005.34;;;23.82;39.77
11621;BME280;5866;49.094;11.900;2023-07-20T11:14:40;96013.16;;;22.78;41.34
11621;BME280;5866;49.094;11.900;2023-07-20T11:17:12;96020.81;;;23.15;42.99
11621;BME280;5866;49.094;11.900;2023-07-20T11:19:40;96021.06;;;23.30;41.66
11621;BME280;5866;49.094;11.900;2023-07-20T11:22:12;96013.53;;;24.95;41.42
11621;BME280;5866;49.094;11.900;2023-07-20T11:24:40;96007.75;;;25.81;38.24
11621;BME280;5866;49.094;11.900;2023-07-20T11:27:09;96002.97;;;25.98;39.23
11621;BME280;5866;49.094;11.900;2023-07-20T11:29:37;96006.09;;;24.59;38.90
11621;BME280;5866;49.094;11.900;2023-07-20T11:32:05;96006.25;;;25.27;39.01
11621;BME280;5866;49.094;11.900;2023-07-20T11:34:34;95985.44;;;27.48;36.33
11621;BME280;5866;49.094;11.900;2023-07-20T11:37:03;95989.50;;;27.66;35.10
11621;BME280;5866;49.094;11.900;2023-07-20T11:39:35;95996.06;;;27.40;35.49
11621;BME280;5866;49.094;11.900;2023-07-20T11:42:03;95988.19;;;24.58;40.42
11621;BME280;5866;49.094;11.900;2023-07-20T11:44:32;95988.53;;;23.96;42.63
11621;BME280;5866;49.094;11.900;2023-07-20T11:47:00;96000.19;;;25.20;41.86
11621;BME280;5866;49.094;11.900;2023-07-20T11:49:29;95998.81;;;26.33;38.91
11621;BME280;5866;49.094;11.900;2023-07-20T11:52:00;95992.69;;;26.06;38.78
11621;BME280;5866;49.094;11.900;2023-07-20T11:54:28;95995.00;;;26.34;35.93
11621;BME280;5866;49.094;11.900;2023-07-20T11:57:00;95988.19;;;25.79;35.80
11621;BME280;5866;49.094;11.900;2023-07-20T11:59:28;95976.88;;;25.51;37.14
11621;BME280;5866;49.094;11.900;2023-07-20T12:01:55;95977.94;;;26.01;38.63
11621;BME280;5866;49.094;11.900;2023-07-20T12:04:23;95971.50;;;26.74;38.71
11621;BME280;5866;49.094;11.900;2023-07-20T12:06:53;95971.53;;;27.40;34.74
11621;BME280;5866;49.094;11.900;2023-07-20T12:09:21;95970.06;;;26.62;36.20
11621;BME280;5866;49.094;11.900;2023-07-20T12:11:51;95966.47;;;24.79;40.24
11621;BME280;5866;49.094;11.900;2023-07-20T12:14:20;95962.66;;;25.07;38.26
11621;BME280;5866;49.094;11.900;2023-07-20T12:16:53;95961.06;;;25.43;38.07
11621;BME280;5866;49.094;11.900;2023-07-20T12:19:25;95960.75;;;26.33;36.93
11621;BME280;5866;49.094;11.900;2023-07-20T12:21:57;95956.88;;;26.24;36.20
11621;BME280;5866;49.094;11.900;2023-07-20T12:24:25;95941.72;;;26.48;35.21
11621;BME280;5866;49.094;11.900;2023-07-20T12:26:56;95943.47;;;26.99;36.74
11621;BME280;5866;49.094;11.900;2023-07-20T12:29:25;95946.09;;;26.49;36.99
11621;BME280;5866;49.094;11.900;2023-07-20T12:31:53;95949.13;;;27.83;33.96
11621;BME280;5866;49.094;11.900;2023-07-20T12:34:20;95945.03;;;27.86;33.82
11621;BME280;5866;49.094;11.900;2023-07-20T12:36:48;95946.72;;;27.62;34.15
11621;BME280;5866;49.094;11.900;2023-07-20T12:39:16;95944.19;;;27.90;32.96
11621;BME280;5866;49.094;11.900;2023-07-20T12:41:43;95930.13;;;28.37;30.44
11621;BME280;5866;49.094;11.900;2023-07-20T12:44:11;95933.91;;;26.92;33.56
11621;BME280;5866;49.094;11.900;2023-07-20T12:46:40;95925.16;;;26.64;35.41
11621;BME280;5866;49.094;11.900;2023-07-20T12:49:08;95936.81;;;25.83;33.04
11621;BME280;5866;49.094;11.900;2023-07-20T12:51:35;95930.94;;;26.98;33.69
11621;BME280;5866;49.094;11.900;2023-07-20T12:54:04;95929.06;;;28.28;32.65
11621;BME280;5866;49.094;11.900;2023-07-20T12:56:32;95911.78;;;27.74;33.11
11621;BME280;5866;49.094;11.900;2023-07-20T12:59:02;95922.75;;;27.53;34.56
11621;BME280;5866;49.094;11.900;2023-07-20T13:01:32;95919.19;;;27.68;34.24
11621;BME280;5866;49.094;11.900;2023-07-20T13:04:01;95931.22;;;27.02;35.07
11621;BME280;5866;49.094;11.900;2023-07-20T13:06:32;95918.41;;;26.77;35.47
11621;BME280;5866;49.094;11.900;2023-07-20T13:09:02;95930.78;;;26.28;35.78